createdAt,value
2022-11-18T00:03:48.050Z,53.51
2022-11-18T00:08:52.479Z,54.53
2022-11-18T00:14:13.749Z,55.87
2022-11-18T00:19:17.126Z,56.63
2022-11-18T00:24:20.886Z,57.55
2022-11-18T00:29:26.986Z,58.48
2022-11-18T00:34:29.999Z,58.98
2022-11-18T00:39:32.979Z,59.99
2022-11-18T00:44:37.007Z,60.46
2022-11-18T00:49:39.977Z,60.70
2022-11-18T00:54:42.912Z,61.03
2022-11-18T00:59:46.084Z,61.31
2022-11-18T01:04:49.144Z,70.12
2022-11-18T01:09:52.128Z,62.54
2022-11-18T01:14:55.052Z,49.34
2022-11-18T01:19:58.225Z,49.06
2022-11-18T01:25:01.238Z,50.21
2022-11-18T01:30:04.620Z,51.34
2022-11-18T01:35:07.939Z,53.17
2022-11-18T01:40:11.338Z,54.05
2022-11-18T01:45:29.012Z,54.99
2022-11-18T01:50:34.089Z,56.35
2022-11-18T01:55:41.849Z,57.34
2022-11-18T02:00:44.810Z,58.02
2022-11-18T02:05:49.589Z,58.66
2022-11-18T02:10:52.629Z,59.26
2022-11-18T02:16:16.595Z,59.64
2022-11-18T02:21:53.009Z,59.73
2022-11-18T02:27:02.087Z,60.23
2022-11-18T02:32:13.802Z,59.65
2022-11-18T02:37:33.371Z,60.63
2022-11-18T02:42:38.073Z,61.03
2022-11-18T02:47:45.105Z,61.32
2022-11-18T02:52:52.897Z,61.51
2022-11-18T02:57:57.733Z,70.61
2022-11-18T03:03:00.855Z,62.08
2022-11-18T03:08:13.694Z,49.79
2022-11-18T03:13:34.893Z,49.98
2022-11-18T03:18:57.689Z,51.45
2022-11-18T03:24:13.384Z,52.84
2022-11-18T03:29:21.730Z,54.21
2022-11-18T03:34:34.811Z,55.64
2022-11-18T03:39:42.829Z,57.01
2022-11-18T03:44:53.507Z,58.10
2022-11-18T03:50:04.386Z,59.08
2022-11-18T03:55:15.049Z,60.09
2022-11-18T04:00:20.370Z,61.37
2022-11-18T04:05:26.740Z,71.73
2022-11-18T04:10:35.477Z,62.72
2022-11-18T04:15:40.783Z,50.67
2022-11-18T04:20:43.914Z,50.83
2022-11-18T04:25:46.984Z,51.75
2022-11-18T04:30:51.150Z,53.05
2022-11-18T04:35:54.080Z,54.35
2022-11-18T04:40:56.983Z,56.23
2022-11-18T04:45:59.904Z,57.87
2022-11-18T04:51:06.418Z,59.20
2022-11-18T04:56:09.730Z,59.57
2022-11-18T05:01:13.483Z,60.45
2022-11-18T05:06:16.465Z,60.99
2022-11-18T05:11:38.098Z,69.48
2022-11-18T05:16:41.291Z,63.32
2022-11-18T05:21:44.244Z,50.00
2022-11-18T05:26:47.401Z,49.64
2022-11-18T05:31:50.912Z,51.08
2022-11-18T05:36:53.942Z,52.44
2022-11-18T05:42:16.497Z,53.71
2022-11-18T05:47:19.460Z,55.01
2022-11-18T05:52:22.589Z,56.67
2022-11-18T05:57:25.502Z,57.66
2022-11-18T06:02:30.819Z,58.79
2022-11-18T06:07:46.808Z,59.62
2022-11-18T06:12:52.938Z,60.38
2022-11-18T06:18:04.067Z,60.16
2022-11-18T06:23:07.086Z,69.80
2022-11-18T06:28:12.295Z,62.70
2022-11-18T06:33:15.288Z,50.32
2022-11-18T06:38:18.297Z,50.37
2022-11-18T06:43:39.229Z,51.47
2022-11-18T06:48:42.396Z,52.87
2022-11-18T06:53:45.562Z,54.53
2022-11-18T06:58:53.913Z,55.69
2022-11-18T07:03:59.787Z,56.93
2022-11-18T07:09:05.951Z,58.15
2022-11-18T07:14:09.700Z,59.29
2022-11-18T07:19:14.023Z,60.38
2022-11-18T07:24:17.136Z,69.24
2022-11-18T07:29:20.467Z,62.91
2022-11-18T07:34:23.492Z,50.47
2022-11-18T07:39:26.456Z,50.13
2022-11-18T07:44:29.545Z,51.48
2022-11-18T07:49:32.527Z,52.81
2022-11-18T07:54:35.541Z,54.42
2022-11-18T07:59:38.459Z,56.14
2022-11-18T08:04:41.460Z,57.04
2022-11-18T08:09:44.468Z,58.36
2022-11-18T08:14:47.502Z,59.08
2022-11-18T08:19:50.446Z,59.87
2022-11-18T08:24:53.439Z,60.53
2022-11-18T08:29:56.441Z,69.14
2022-11-18T08:34:59.457Z,61.90
2022-11-18T08:40:02.810Z,50.03
2022-11-18T08:45:08.605Z,50.41
2022-11-18T08:50:12.708Z,51.66
2022-11-18T08:55:15.898Z,53.16
2022-11-18T09:00:19.452Z,54.35
2022-11-18T09:05:22.403Z,55.98
2022-11-18T09:10:25.422Z,56.60
2022-11-18T09:15:29.841Z,57.84
2022-11-18T09:20:32.821Z,58.88
2022-11-18T09:25:35.766Z,60.33
2022-11-18T09:30:38.771Z,60.75
2022-11-18T09:35:43.249Z,61.07
2022-11-18T09:41:24.642Z,69.24
2022-11-18T09:46:35.408Z,60.45
2022-11-18T09:51:46.936Z,49.18
2022-11-18T09:56:52.230Z,49.88
2022-11-18T10:02:11.713Z,50.99
2022-11-18T10:07:26.555Z,51.97
2022-11-18T10:12:36.426Z,53.18
2022-11-18T10:18:04.039Z,54.59
2022-11-18T10:23:32.677Z,55.61
2022-11-18T10:28:35.814Z,56.61
2022-11-18T10:33:39.589Z,57.88
2022-11-18T10:38:48.466Z,58.74
2022-11-18T10:43:56.496Z,59.47
2022-11-18T10:49:08.587Z,60.07
2022-11-18T10:54:23.514Z,60.95
2022-11-18T10:59:39.915Z,69.23
2022-11-18T11:04:45.054Z,60.11
2022-11-18T11:10:18.236Z,49.05
2022-11-18T11:15:35.564Z,49.38
2022-11-18T11:20:38.978Z,50.86
2022-11-18T11:31:39.067Z,54.07
2022-11-18T11:36:44.587Z,55.37
2022-11-18T11:42:07.903Z,55.78
2022-11-18T11:47:47.440Z,57.10
2022-11-18T11:53:06.550Z,57.99
2022-11-18T11:58:48.564Z,58.97
2022-11-18T12:04:00.706Z,59.38
2022-11-18T12:09:21.234Z,60.09
2022-11-18T12:14:41.042Z,61.11
2022-11-18T12:19:44.036Z,61.16
2022-11-18T12:24:46.973Z,61.48
2022-11-18T12:29:50.299Z,69.03
2022-11-18T12:35:00.948Z,61.69
2022-11-18T12:40:04.330Z,49.77
2022-11-18T12:45:41.378Z,49.11
2022-11-18T12:50:53.164Z,50.08
2022-11-18T12:55:59.510Z,51.32
2022-11-18T13:01:11.257Z,53.32
2022-11-18T13:06:31.489Z,54.45
2022-11-18T13:11:47.782Z,55.22
2022-11-18T13:17:09.925Z,56.07
2022-11-18T13:22:37.064Z,57.01
2022-11-18T13:28:07.396Z,57.54
2022-11-18T13:33:11.908Z,58.17
2022-11-18T13:38:28.130Z,58.74
2022-11-18T13:43:32.456Z,58.93
2022-11-18T13:48:38.059Z,59.37
2022-11-18T13:53:41.302Z,59.49
2022-11-18T13:59:21.717Z,59.74
2022-11-18T14:04:25.836Z,60.05
2022-11-18T14:09:31.180Z,60.15
2022-11-18T14:14:40.283Z,60.59
2022-11-18T14:19:43.956Z,60.56
2022-11-18T14:25:01.699Z,60.28
2022-11-18T14:30:23.546Z,60.39
2022-11-18T14:35:30.448Z,60.54
2022-11-18T14:40:36.299Z,60.77
2022-11-18T14:45:40.637Z,61.16
2022-11-18T14:50:43.634Z,61.11
2022-11-18T14:55:49.825Z,60.65
2022-11-18T15:00:53.372Z,60.56
2022-11-18T15:05:56.453Z,60.71
2022-11-18T15:10:59.558Z,60.46
2022-11-18T15:16:26.888Z,60.62
2022-11-18T15:21:30.586Z,60.64
2022-11-18T15:26:40.049Z,60.54
2022-11-18T15:31:43.053Z,60.90
2022-11-18T15:36:46.605Z,60.75
2022-11-18T15:41:49.770Z,60.39
2022-11-18T15:46:52.726Z,60.60
2022-11-18T15:51:55.865Z,60.54
2022-11-18T15:56:58.907Z,60.41
2022-11-18T16:02:01.894Z,60.49
2022-11-18T16:07:05.609Z,60.53
2022-11-18T16:12:27.436Z,60.38
2022-11-18T16:17:30.374Z,60.50
2022-11-18T16:22:33.464Z,60.46
2022-11-18T16:27:39.187Z,60.06
2022-11-18T16:32:42.107Z,59.88
2022-11-18T16:37:45.103Z,60.08
2022-11-18T16:42:52.004Z,59.88
2022-11-18T16:47:55.200Z,59.81
2022-11-18T16:52:58.489Z,59.91
2022-11-18T16:58:01.455Z,59.68
2022-11-18T17:03:04.697Z,59.84
2022-11-18T17:08:07.611Z,59.66
2022-11-18T17:13:10.597Z,59.63
2022-11-18T17:18:13.664Z,60.24
2022-11-18T17:23:16.824Z,59.96
2022-11-18T17:28:19.810Z,59.65
2022-11-18T17:33:23.387Z,59.50
2022-11-18T17:38:26.606Z,59.39
2022-11-18T17:43:30.093Z,59.51
2022-11-18T17:48:33.073Z,59.60
2022-11-18T17:53:38.108Z,59.39
2022-11-18T17:58:45.053Z,59.51
2022-11-18T18:03:49.007Z,59.66
2022-11-18T18:08:56.452Z,59.75
2022-11-18T18:14:14.923Z,59.59
2022-11-18T18:19:21.188Z,59.17
2022-11-18T18:24:24.902Z,59.15
2022-11-18T18:29:27.873Z,59.09
2022-11-18T18:34:30.851Z,58.96
2022-11-18T18:39:33.906Z,58.64
2022-11-18T18:44:55.531Z,58.82
2022-11-18T18:49:58.499Z,59.62
2022-11-18T18:55:01.483Z,58.79
2022-11-18T19:00:05.308Z,58.65
2022-11-18T19:05:09.570Z,58.71
2022-11-18T19:10:13.686Z,58.52
2022-11-18T19:15:16.952Z,58.68
2022-11-18T19:20:36.719Z,58.70
2022-11-18T19:25:39.758Z,58.65
2022-11-18T19:30:42.747Z,58.61
2022-11-18T19:35:45.676Z,58.57
2022-11-18T19:40:48.760Z,58.63
2022-11-18T19:45:52.326Z,58.55
2022-11-18T19:51:07.135Z,58.55
2022-11-18T19:56:12.023Z,58.75
2022-11-18T20:01:17.867Z,58.79
2022-11-18T20:06:22.329Z,58.48
2022-11-18T20:11:25.477Z,58.69
2022-11-18T20:16:28.600Z,58.51
2022-11-18T20:21:33.119Z,60.17
2022-11-18T20:26:39.156Z,59.41
2022-11-18T20:31:42.142Z,59.03
2022-11-18T20:36:46.572Z,58.55
2022-11-18T20:42:09.866Z,58.48
2022-11-18T20:47:12.826Z,58.49
2022-11-18T20:52:15.777Z,58.77
2022-11-18T20:57:18.756Z,58.28
2022-11-18T21:02:21.681Z,58.04
2022-11-18T21:07:25.234Z,57.06
2022-11-18T21:12:28.379Z,56.70
2022-11-18T21:17:31.614Z,57.00
2022-11-18T21:22:34.537Z,57.47
2022-11-18T21:27:37.445Z,57.34
2022-11-18T21:32:40.365Z,57.15
2022-11-18T21:37:43.317Z,57.23
2022-11-18T21:42:46.250Z,57.42
2022-11-18T21:47:49.156Z,57.65
2022-11-18T21:52:52.267Z,57.63
2022-11-18T21:57:57.664Z,57.51
2022-11-18T22:03:04.386Z,57.76
2022-11-18T22:08:10.928Z,57.98
2022-11-18T22:13:13.906Z,57.94
2022-11-18T22:18:16.911Z,57.96
2022-11-18T22:23:21.699Z,58.25
2022-11-18T22:28:25.278Z,58.52
2022-11-18T22:33:28.260Z,58.64
2022-11-18T22:38:31.937Z,58.69
2022-11-18T22:43:35.855Z,58.59
2022-11-18T22:48:38.802Z,58.70
2022-11-18T22:53:41.752Z,58.78
2022-11-18T22:58:44.956Z,58.73
2022-11-18T23:03:48.517Z,58.77
2022-11-18T23:08:51.502Z,58.66
2022-11-18T23:14:03.894Z,58.87
2022-11-18T23:19:09.409Z,58.89
2022-11-18T23:24:17.421Z,59.04
2022-11-18T23:29:20.677Z,59.07
2022-11-18T23:34:23.866Z,58.72
2022-11-18T23:39:27.729Z,58.80
2022-11-18T23:44:45.797Z,58.88
2022-11-18T23:49:48.722Z,59.04
2022-11-18T23:54:53.157Z,58.93
2022-11-18T23:59:56.089Z,58.76
